50OI weather

CLOSED Beckman Field
Ashville, Ohio, United States

Public forecast

Using degrees Fahrenheit for public forecast. Weather courtesy of forecast.io.

Closest aviation weather report (METAR) to Beckman Field

Closest report is Rickenbacker International Airport, 6.7 nm (12.3 km) NE. Retrieved 2020/06/01 06:55 UTC (59 minutes ago):

KLCK 010655Z AUTO 04004KT CLR 08/03 A3031 RMK AO2 T00840030

Closest aviation forecast (TAF) to Beckman Field

Closest forecast is Rickenbacker International Airport, 6.7 nm (12.3 km) NE. Retrieved 2020/06/01 06:27 UTC (1 hour ago):

TAF KLCK 010523Z 0106/0206 05003KT P6SM FEW250 FM011600 19005KT P6SM FEW250 FM020000 21006KT P6SM BKN120